OERK/RUH METAR and TAF weather

Enter ICAO airport designator
Station Type Date Time Source
OERK METAR 2021/09/23 23:00 UTC NOAA

OERK 232300Z 13003KT CAVOK 28/07 Q1009 NOSIG


Station Type Date Time Source
OERK Decoded METAR 2021/09/23 23:00 UTC NOAA

King Khaled International Airport, Saudi Arabia (OERK) 24-56N 046-43E 612M
Sep 23, 2021 - 07:00 PM EDT / 2021.09.23 2300 UTC
Wind: from the SE (130 degrees) at 3 MPH (3 KT):0
Visibility: greater than 7 mile(s):0
Temperature: 82 F (28 C)
Dew Point: 44 F (7 C)
Relative Humidity: 26%
Pressure (altimeter): 29.80 in. Hg (1009 hPa)
ob: OERK 232300Z 13003KT CAVOK 28/07 Q1009 NOSIG
cycle: 23

Station Type Date Time Source
OERK TAF 2021/09/23 18:33 UTC NOAA

TAF OERK 231700Z 2318/2424 16006KT CAVOK
BECMG 2406/2408 16016KT
BECMG 2412/2414 06010KT
BECMG 2420/2422 VRB03KT

Example: see airport list